Time,TemperatureF,DewpointF,PressureIn,WindDirection,WindDirectionDegrees,WindSpeedMPH,WindSpeedGustMPH,Humidity,HourlyPrecipIn,Conditions,Clouds,dailyrainin,SoftwareType,DateUTC
2014-08-28 00:00:00,65.1,63.3,29.87,North,4,2.0,7.0,94,0.00,,,0.13,Wunderground v.1.15,2014-08-27 22:00:00,
2014-08-28 00:10:00,67.9,62.5,29.87,NNE,31,4.0,4.0,83,0.00,,,0.00,Wunderground v.1.15,2014-08-27 22:10:00,
2014-08-28 00:20:00,69.3,61.4,29.88,NNE,27,7.0,8.0,76,0.00,,,0.00,Wunderground v.1.15,2014-08-27 22:20:00,
2014-08-28 00:30:00,69.6,60.2,29.87,North,5,9.0,9.0,72,0.00,,,0.00,Wunderground v.1.15,2014-08-27 22:30:00,
2014-08-28 00:40:00,69.0,59.6,29.88,ENE,66,7.0,11.0,72,0.00,,,0.00,Wunderground v.1.15,2014-08-27 22:40:00,
2014-08-28 00:50:00,68.8,59.4,29.89,NE,45,10.0,10.0,72,0.00,,,0.00,Wunderground v.1.15,2014-08-27 22:50:00,
2014-08-28 01:00:00,68.7,59.3,29.89,NE,52,8.0,8.0,72,0.00,,,0.00,Wunderground v.1.15,2014-08-27 23:00:00,
2014-08-28 01:10:00,68.7,58.5,29.89,NE,56,9.0,9.0,70,0.00,,,0.00,Wunderground v.1.15,2014-08-27 23:10:00,
2014-08-28 01:20:00,68.8,57.8,29.89,ENE,67,9.0,14.0,68,0.00,,,0.00,Wunderground v.1.15,2014-08-27 23:20:00,
2014-08-28 01:30:00,68.8,57.4,29.89,ENE,67,11.0,12.0,67,0.00,,,0.00,Wunderground v.1.15,2014-08-27 23:30:00,
2014-08-28 01:40:00,68.7,57.3,29.90,ENE,61,12.0,12.0,67,0.00,,,0.00,Wunderground v.1.15,2014-08-27 23:40:00,
2014-08-28 01:50:00,68.4,57.0,29.89,ENE,75,12.0,12.0,67,0.00,,,0.00,Wunderground v.1.15,2014-08-27 23:50:00,
2014-08-28 02:00:00,68.2,56.8,29.89,ENE,77,12.0,12.0,67,0.00,,,0.00,Wunderground v.1.15,2014-08-28 00:00:00,
2014-08-28 02:10:00,68.1,56.3,29.90,ENE,63,12.0,19.0,66,0.00,,,0.00,Wunderground v.1.15,2014-08-28 00:10:00,
2014-08-28 02:20:00,68.0,56.2,29.90,NE,52,11.0,11.0,66,0.00,,,0.00,Wunderground v.1.15,2014-08-28 00:20:00,
2014-08-28 02:30:00,68.0,56.2,29.91,NE,35,8.0,8.0,66,0.00,,,0.00,Wunderground v.1.15,2014-08-28 00:30:00,
2014-08-28 02:40:00,67.4,56.9,29.91,NNE,16,4.0,4.0,69,0.00,,,0.00,Wunderground v.1.15,2014-08-28 00:40:00,
2014-08-28 02:50:00,67.2,55.9,29.91,ENE,57,5.0,5.0,67,0.00,,,0.00,Wunderground v.1.15,2014-08-28 00:50:00,
2014-08-28 03:00:00,67.1,55.8,29.91,North,355,8.0,8.0,67,0.00,,,0.00,Wunderground v.1.15,2014-08-28 01:00:00,
2014-08-28 03:10:00,67.0,55.7,29.91,North,356,8.0,8.0,67,0.00,,,0.00,Wunderground v.1.15,2014-08-28 01:10:00,
2014-08-28 03:20:00,66.8,55.1,29.92,NNE,30,9.0,9.0,66,0.00,,,0.00,Wunderground v.1.15,2014-08-28 01:20:00,
2014-08-28 03:30:00,66.4,55.5,29.93,NNE,27,7.0,7.0,68,0.00,,,0.00,Wunderground v.1.15,2014-08-28 01:30:00,
2014-08-28 03:40:00,65.5,55.8,29.93,North,9,5.0,5.0,71,0.00,,,0.01,Wunderground v.1.15,2014-08-28 01:40:00,
2014-08-28 03:50:00,64.2,56.8,29.93,North,350,4.0,4.0,77,0.14,,,0.02,Wunderground v.1.15,2014-08-28 01:50:00,
2014-08-28 04:00:00,62.4,57.2,29.93,NW,316,1.0,1.0,83,0.09,,,0.03,Wunderground v.1.15,2014-08-28 02:00:00,
2014-08-28 04:10:00,61.8,56.6,29.92,ENE,78,4.0,4.0,83,0.11,,,0.05,Wunderground v.1.15,2014-08-28 02:10:00,
2014-08-28 04:20:00,61.3,56.4,29.92,East,96,10.0,12.0,84,0.09,,,0.06,Wunderground v.1.15,2014-08-28 02:20:00,
2014-08-28 04:30:00,61.2,56.3,29.92,ENE,70,12.0,12.0,84,0.04,,,0.06,Wunderground v.1.15,2014-08-28 02:30:00,
2014-08-28 04:40:00,61.2,56.7,29.92,ENE,58,13.0,13.0,85,0.00,,,0.06,Wunderground v.1.15,2014-08-28 02:40:00,
2014-08-28 04:50:00,61.6,56.4,29.92,ENE,64,11.0,15.0,83,0.00,,,0.06,Wunderground v.1.15,2014-08-28 02:50:00,
2014-08-28 05:00:00,62.2,55.6,29.93,NE,44,9.0,9.0,79,0.00,,,0.06,Wunderground v.1.15,2014-08-28 03:00:00,
2014-08-28 05:10:00,62.7,55.0,29.93,ENE,62,8.0,13.0,76,0.00,,,0.06,Wunderground v.1.15,2014-08-28 03:10:00,
2014-08-28 05:20:00,63.0,54.9,29.93,NNE,14,6.0,6.0,75,0.00,,,0.06,Wunderground v.1.15,2014-08-28 03:20:00,
2014-08-28 05:30:00,63.5,53.9,29.93,NNE,23,8.0,8.0,71,0.00,,,0.06,Wunderground v.1.15,2014-08-28 03:30:00,
2014-08-28 05:40:00,64.1,54.1,29.92,ENE,62,8.0,8.0,70,0.00,,,0.06,Wunderground v.1.15,2014-08-28 03:40:00,
2014-08-28 05:50:00,63.8,54.6,29.93,NE,54,5.0,5.0,72,0.00,,,0.06,Wunderground v.1.15,2014-08-28 03:50:00,
2014-08-28 06:00:00,62.7,54.3,29.93,NE,41,3.0,3.0,74,0.00,,,0.06,Wunderground v.1.15,2014-08-28 04:00:00,
2014-08-28 06:10:00,62.7,54.3,29.94,NNE,13,2.0,2.0,74,0.00,,,0.06,Wunderground v.1.15,2014-08-28 04:10:00,
2014-08-28 06:20:00,62.5,55.5,29.94,NE,49,2.0,6.0,78,0.00,,,0.06,Wunderground v.1.15,2014-08-28 04:20:00,
2014-08-28 06:30:00,63.0,53.1,29.95,NW,312,3.0,3.0,70,0.00,,,0.06,Wunderground v.1.15,2014-08-28 04:30:00,
2014-08-28 06:40:00,63.1,53.9,29.95,North,8,3.0,6.0,72,0.00,,,0.06,Wunderground v.1.15,2014-08-28 04:40:00,
2014-08-28 06:50:00,63.9,52.3,29.95,NNW,344,4.0,7.0,66,0.00,,,0.06,Wunderground v.1.15,2014-08-28 04:50:00,
2014-08-28 07:00:00,64.1,52.1,29.95,NNE,23,4.0,6.0,65,0.00,,,0.06,Wunderground v.1.15,2014-08-28 05:00:00,
2014-08-28 07:10:00,64.3,51.4,29.95,ENE,68,6.0,6.0,63,0.00,,,0.06,Wunderground v.1.15,2014-08-28 05:10:00,
2014-08-28 07:20:00,65.8,50.6,29.94,ENE,70,11.0,14.0,58,0.00,,,0.06,Wunderground v.1.15,2014-08-28 05:20:00,
2014-08-28 07:30:00,66.3,50.1,29.94,NE,51,13.0,14.0,56,0.00,,,0.06,Wunderground v.1.15,2014-08-28 05:30:00,
2014-08-28 07:40:00,66.4,49.7,29.94,ENE,69,9.0,13.0,55,0.00,,,0.06,Wunderground v.1.15,2014-08-28 05:40:00,
2014-08-28 07:50:00,66.7,50.0,29.94,NE,43,10.0,10.0,55,0.00,,,0.06,Wunderground v.1.15,2014-08-28 05:50:00,
2014-08-28 08:00:00,66.7,50.0,29.95,NE,48,7.0,11.0,55,0.00,,,0.06,Wunderground v.1.15,2014-08-28 06:00:00,
2014-08-28 08:20:00,66.5,51.3,29.95,North,4,5.0,5.0,58,0.00,,,0.06,Wunderground v.1.15,2014-08-28 06:20:00,
2014-08-28 08:30:00,66.2,53.7,29.96,North,349,3.0,3.0,64,0.00,,,0.06,Wunderground v.1.15,2014-08-28 06:30:00,
2014-08-28 08:40:00,65.8,53.3,29.96,NNW,340,3.0,4.0,64,0.00,,,0.06,Wunderground v.1.15,2014-08-28 06:40:00,
2014-08-28 08:50:00,66.3,52.0,29.96,North,8,3.0,3.0,60,0.00,,,0.06,Wunderground v.1.15,2014-08-28 06:50:00,
2014-08-28 09:00:00,66.0,53.9,29.96,NNE,27,3.0,3.0,65,0.00,,,0.06,Wunderground v.1.15,2014-08-28 07:00:00,
2014-08-28 09:10:00,66.6,55.3,29.97,ENE,70,2.0,2.0,67,0.00,,,0.06,Wunderground v.1.15,2014-08-28 07:10:00,
2014-08-28 09:20:00,65.5,55.1,29.97,NE,36,2.0,2.0,69,0.00,,,0.06,Wunderground v.1.15,2014-08-28 07:20:00,
2014-08-28 09:30:00,65.6,54.3,29.97,NNE,30,2.0,2.0,67,0.00,,,0.06,Wunderground v.1.15,2014-08-28 07:30:00,
2014-08-28 09:40:00,66.1,54.4,29.98,NE,49,2.0,2.0,66,0.00,,,0.06,Wunderground v.1.15,2014-08-28 07:40:00,
2014-08-28 09:50:00,66.5,58.0,29.98,ENE,70,1.0,1.0,74,0.00,,,0.06,Wunderground v.1.15,2014-08-28 07:50:00,
2014-08-28 10:00:00,66.9,57.6,29.98,ENE,70,0.0,0.0,72,0.00,,,0.06,Wunderground v.1.15,2014-08-28 08:00:00,
2014-08-28 10:10:00,67.5,58.5,29.98,ENE,72,1.0,2.0,73,0.00,,,0.06,Wunderground v.1.15,2014-08-28 08:10:00,
2014-08-28 10:20:00,68.2,58.0,29.98,ENE,72,2.0,2.0,70,0.00,,,0.06,Wunderground v.1.15,2014-08-28 08:20:00,
2014-08-28 10:30:00,68.8,57.0,29.98,NE,48,1.0,1.0,66,0.00,,,0.06,Wunderground v.1.15,2014-08-28 08:30:00,